EFKI

Kajaani Airport

Kajaani, Finland
METAR EFKI 250450Z AUTO 22003KT CAVOK 14/03 Q1028
Observed Flight Rules
May-25 @ 04:50 UTC (27 minutes ago) Visual Flight Rules
Wind Visibility Clouds
220° at 3 knots 10,000+ meters
  • Clear skies
Temperatures Readings
Current 14°C / 57°F
Dewpoint 3°C / 37°F
Humidity 48%
Altimeter 30.35" Hg
Pressure 1028 hPa
Elevation 136
METAR EFKI 250450Z AUTO 22003KT CAVOK 14/03 Q1028
Observed Flight Rules
May-25 @ 04:50 UTC
(27 minutes ago)
VFR
Wind Visibility
220° at 3 knots 10,000+ meters
Clouds
  • Clear skies
Temperature Dewpoint
14°C / 57°F 3°C / 37°F
Humidity Altimeter Pressure
48% 30.35" Hg 1028 hPa